sensor_id;sensor_type;location;lat;lon;timestamp;pressure;altitude;pressure_sealevel;temperature;humidity
73171;BME280;61381;50.118;19.962;2023-09-19T00:01:04;97882.53;;;18.77;100.00
73171;BME280;61381;50.118;19.962;2023-09-19T00:06:15;97887.59;;;18.79;100.00
73171;BME280;61381;50.118;19.962;2023-09-19T00:11:17;97884.19;;;18.82;100.00
73171;BME280;61381;50.118;19.962;2023-09-19T00:16:18;97879.97;;;18.84;100.00
73171;BME280;61381;50.118;19.962;2023-09-19T00:21:19;97878.69;;;18.78;100.00
73171;BME280;61381;50.118;19.962;2023-09-19T00:26:21;97882.88;;;18.76;100.00
73171;BME280;61381;50.118;19.962;2023-09-19T00:31:22;97873.78;;;18.84;100.00
73171;BME280;61381;50.118;19.962;2023-09-19T00:36:22;97860.47;;;18.79;100.00
73171;BME280;61381;50.118;19.962;2023-09-19T00:41:25;97865.19;;;18.98;100.00
73171;BME280;61381;50.118;19.962;2023-09-19T00:46:26;97865.38;;;18.89;100.00
73171;BME280;61381;50.118;19.962;2023-09-19T00:51:27;97858.19;;;18.97;100.00
73171;BME280;61381;50.118;19.962;2023-09-19T00:56:29;97865.31;;;18.85;100.00
73171;BME280;61381;50.118;19.962;2023-09-19T01:01:30;97863.53;;;18.93;100.00
73171;BME280;61381;50.118;19.962;2023-09-19T01:06:31;97854.94;;;18.91;100.00
73171;BME280;61381;50.118;19.962;2023-09-19T01:11:38;97868.25;;;18.80;100.00
73171;BME280;61381;50.118;19.962;2023-09-19T01:16:46;97856.91;;;18.75;100.00
73171;BME280;61381;50.118;19.962;2023-09-19T01:21:57;97857.53;;;18.68;100.00
73171;BME280;61381;50.118;19.962;2023-09-19T01:27:17;97844.66;;;18.65;100.00
73171;BME280;61381;50.118;19.962;2023-09-19T01:32:29;97841.72;;;18.54;100.00
73171;BME280;61381;50.118;19.962;2023-09-19T01:37:30;97832.44;;;18.55;100.00
73171;BME280;61381;50.118;19.962;2023-09-19T01:42:39;97835.84;;;18.52;100.00
73171;BME280;61381;50.118;19.962;2023-09-19T01:47:48;97824.06;;;18.28;100.00
73171;BME280;61381;50.118;19.962;2023-09-19T01:52:55;97805.63;;;18.02;100.00
73171;BME280;61381;50.118;19.962;2023-09-19T01:58:01;97820.59;;;17.96;100.00
73171;BME280;61381;50.118;19.962;2023-09-19T02:03:08;97815.69;;;18.02;100.00
73171;BME280;61381;50.118;19.962;2023-09-19T02:08:09;97812.63;;;18.03;100.00
73171;BME280;61381;50.118;19.962;2023-09-19T02:13:10;97815.88;;;17.93;100.00
73171;BME280;61381;50.118;19.962;2023-09-19T02:18:13;97825.56;;;18.10;100.00
73171;BME280;61381;50.118;19.962;2023-09-19T02:23:14;97817.44;;;17.94;100.00
73171;BME280;61381;50.118;19.962;2023-09-19T02:28:15;97814.31;;;18.08;100.00
73171;BME280;61381;50.118;19.962;2023-09-19T02:33:18;97801.72;;;17.99;100.00
73171;BME280;61381;50.118;19.962;2023-09-19T02:38:18;97802.41;;;18.12;100.00
73171;BME280;61381;50.118;19.962;2023-09-19T02:43:19;97792.09;;;18.02;100.00
73171;BME280;61381;50.118;19.962;2023-09-19T02:48:21;97786.50;;;18.11;100.00
73171;BME280;61381;50.118;19.962;2023-09-19T02:53:22;97785.53;;;18.03;100.00
73171;BME280;61381;50.118;19.962;2023-09-19T02:58:23;97783.25;;;18.05;100.00
73171;BME280;61381;50.118;19.962;2023-09-19T03:03:25;97778.88;;;18.00;100.00
73171;BME280;61381;50.118;19.962;2023-09-19T03:08:26;97767.63;;;17.98;100.00
73171;BME280;61381;50.118;19.962;2023-09-19T03:13:27;97752.56;;;17.85;100.00
73171;BME280;61381;50.118;19.962;2023-09-19T03:18:29;97749.63;;;17.90;100.00
73171;BME280;61381;50.118;19.962;2023-09-19T03:23:30;97744.63;;;17.92;100.00
73171;BME280;61381;50.118;19.962;2023-09-19T03:28:33;97726.00;;;17.91;100.00
73171;BME280;61381;50.118;19.962;2023-09-19T03:33:35;97718.13;;;17.86;100.00
73171;BME280;61381;50.118;19.962;2023-09-19T03:38:36;97715.78;;;18.00;100.00
73171;BME280;61381;50.118;19.962;2023-09-19T03:43:37;97717.25;;;17.97;100.00
73171;BME280;61381;50.118;19.962;2023-09-19T03:48:39;97711.28;;;18.08;100.00
73171;BME280;61381;50.118;19.962;2023-09-19T03:53:40;97714.28;;;18.03;100.00
73171;BME280;61381;50.118;19.962;2023-09-19T03:58:41;97709.47;;;18.12;100.00
73171;BME280;61381;50.118;19.962;2023-09-19T04:03:43;97707.59;;;18.16;100.00
73171;BME280;61381;50.118;19.962;2023-09-19T04:08:44;97700.75;;;18.22;100.00
73171;BME280;61381;50.118;19.962;2023-09-19T04:13:45;97698.56;;;18.28;100.00
73171;BME280;61381;50.118;19.962;2023-09-19T04:18:47;97699.50;;;18.35;100.00
73171;BME280;61381;50.118;19.962;2023-09-19T04:23:48;97698.41;;;18.21;100.00
73171;BME280;61381;50.118;19.962;2023-09-19T04:28:49;97696.88;;;18.04;100.00
73171;BME280;61381;50.118;19.962;2023-09-19T04:33:51;97692.13;;;18.16;100.00
73171;BME280;61381;50.118;19.962;2023-09-19T04:38:52;97691.13;;;18.25;100.00
73171;BME280;61381;50.118;19.962;2023-09-19T04:43:53;97699.91;;;18.18;100.00
73171;BME280;61381;50.118;19.962;2023-09-19T04:48:55;97720.09;;;18.21;100.00
73171;BME280;61381;50.118;19.962;2023-09-19T04:53:56;97729.31;;;18.00;100.00
73171;BME280;61381;50.118;19.962;2023-09-19T04:58:57;97729.06;;;17.89;100.00
73171;BME280;61381;50.118;19.962;2023-09-19T05:03:59;97724.53;;;17.93;100.00
73171;BME280;61381;50.118;19.962;2023-09-19T05:09:00;97724.25;;;17.98;100.00
73171;BME280;61381;50.118;19.962;2023-09-19T05:14:01;97715.38;;;18.17;100.00
73171;BME280;61381;50.118;19.962;2023-09-19T05:19:03;97715.06;;;18.39;100.00
73171;BME280;61381;50.118;19.962;2023-09-19T05:24:05;97706.06;;;18.34;100.00
73171;BME280;61381;50.118;19.962;2023-09-19T05:29:05;97708.50;;;18.40;100.00
73171;BME280;61381;50.118;19.962;2023-09-19T05:34:08;97727.66;;;18.47;100.00
73171;BME280;61381;50.118;19.962;2023-09-19T05:39:08;97739.41;;;18.35;100.00
73171;BME280;61381;50.118;19.962;2023-09-19T05:44:09;97745.22;;;18.53;100.00
73171;BME280;61381;50.118;19.962;2023-09-19T05:49:12;97753.94;;;18.62;100.00
73171;BME280;61381;50.118;19.962;2023-09-19T05:54:13;97748.28;;;18.51;100.00
73171;BME280;61381;50.118;19.962;2023-09-19T05:59:14;97741.81;;;18.40;100.00
73171;BME280;61381;50.118;19.962;2023-09-19T06:04:16;97743.25;;;18.34;100.00
73171;BME280;61381;50.118;19.962;2023-09-19T06:09:17;97757.47;;;18.47;100.00
73171;BME280;61381;50.118;19.962;2023-09-19T06:14:18;97759.19;;;18.55;100.00
73171;BME280;61381;50.118;19.962;2023-09-19T06:19:20;97762.91;;;18.47;100.00
73171;BME280;61381;50.118;19.962;2023-09-19T06:24:21;97759.13;;;18.51;100.00
73171;BME280;61381;50.118;19.962;2023-09-19T06:29:22;97769.72;;;18.41;100.00
73171;BME280;61381;50.118;19.962;2023-09-19T06:34:24;97751.59;;;18.45;100.00
73171;BME280;61381;50.118;19.962;2023-09-19T06:39:25;97756.84;;;18.53;100.00
73171;BME280;61381;50.118;19.962;2023-09-19T06:44:26;97762.63;;;18.52;100.00
73171;BME280;61381;50.118;19.962;2023-09-19T06:49:28;97767.34;;;18.39;100.00
73171;BME280;61381;50.118;19.962;2023-09-19T06:54:29;97764.47;;;18.48;100.00
73171;BME280;61381;50.118;19.962;2023-09-19T06:59:30;97772.34;;;18.53;100.00
73171;BME280;61381;50.118;19.962;2023-09-19T07:04:32;97781.88;;;18.47;100.00
73171;BME280;61381;50.118;19.962;2023-09-19T07:09:33;97787.38;;;18.50;100.00
73171;BME280;61381;50.118;19.962;2023-09-19T07:14:34;97794.06;;;18.37;100.00
73171;BME280;61381;50.118;19.962;2023-09-19T07:19:36;97791.50;;;18.44;100.00
73171;BME280;61381;50.118;19.962;2023-09-19T07:24:37;97796.16;;;18.44;100.00
73171;BME280;61381;50.118;19.962;2023-09-19T07:29:37;97795.59;;;18.54;100.00
73171;BME280;61381;50.118;19.962;2023-09-19T07:34:40;97802.31;;;18.60;100.00
73171;BME280;61381;50.118;19.962;2023-09-19T07:39:40;97811.72;;;18.47;100.00
73171;BME280;61381;50.118;19.962;2023-09-19T07:44:41;97810.84;;;18.43;100.00
73171;BME280;61381;50.118;19.962;2023-09-19T07:49:46;97801.47;;;18.40;100.00
73171;BME280;61381;50.118;19.962;2023-09-19T07:54:47;97809.91;;;18.35;100.00
73171;BME280;61381;50.118;19.962;2023-09-19T07:59:48;97812.34;;;18.40;100.00
73171;BME280;61381;50.118;19.962;2023-09-19T08:04:50;97816.81;;;18.32;100.00
73171;BME280;61381;50.118;19.962;2023-09-19T08:09:51;97827.75;;;18.20;100.00
73171;BME280;61381;50.118;19.962;2023-09-19T08:14:51;97828.72;;;18.28;100.00
73171;BME280;61381;50.118;19.962;2023-09-19T08:19:54;97838.00;;;18.11;100.00
73171;BME280;61381;50.118;19.962;2023-09-19T08:24:54;97835.72;;;17.97;100.00
73171;BME280;61381;50.118;19.962;2023-09-19T08:29:55;97855.72;;;18.40;100.00
73171;BME280;61381;50.118;19.962;2023-09-19T11:31:44;98074.25;;;21.32;100.00
73171;BME280;61381;50.118;19.962;2023-09-19T11:36:45;98077.59;;;21.22;100.00
73171;BME280;61381;50.118;19.962;2023-09-19T11:41:46;98080.72;;;21.47;100.00
73171;BME280;61381;50.118;19.962;2023-09-19T11:46:54;98076.72;;;21.41;100.00
73171;BME280;61381;50.118;19.962;2023-09-19T11:51:56;98089.97;;;21.66;100.00
73171;BME280;61381;50.118;19.962;2023-09-19T11:56:58;98092.50;;;22.12;100.00
73171;BME280;61381;50.118;19.962;2023-09-19T12:02:01;98087.66;;;21.45;100.00
73171;BME280;61381;50.118;19.962;2023-09-19T12:07:05;98090.91;;;21.50;100.00
73171;BME280;61381;50.118;19.962;2023-09-19T12:12:07;98091.78;;;21.58;100.00
73171;BME280;61381;50.118;19.962;2023-09-19T12:17:10;98100.00;;;21.35;100.00
73171;BME280;61381;50.118;19.962;2023-09-19T12:22:11;98104.00;;;21.18;100.00
73171;BME280;61381;50.118;19.962;2023-09-19T12:27:12;98109.28;;;21.07;100.00
73171;BME280;61381;50.118;19.962;2023-09-19T12:32:15;98103.84;;;21.34;100.00
73171;BME280;61381;50.118;19.962;2023-09-19T12:37:16;98108.06;;;20.62;100.00
73171;BME280;61381;50.118;19.962;2023-09-19T12:42:19;98107.13;;;21.43;100.00
73171;BME280;61381;50.118;19.962;2023-09-19T12:47:23;98106.25;;;21.62;100.00
73171;BME280;61381;50.118;19.962;2023-09-19T12:52:24;98106.75;;;21.45;100.00
73171;BME280;61381;50.118;19.962;2023-09-19T12:57:25;98105.59;;;21.46;100.00
73171;BME280;61381;50.118;19.962;2023-09-19T13:02:27;98118.59;;;21.79;100.00
73171;BME280;61381;50.118;19.962;2023-09-19T13:07:40;98122.34;;;21.21;100.00
73171;BME280;61381;50.118;19.962;2023-09-19T13:12:42;98116.59;;;21.49;100.00
73171;BME280;61381;50.118;19.962;2023-09-19T13:17:45;98118.28;;;21.88;100.00
73171;BME280;61381;50.118;19.962;2023-09-19T13:22:47;98122.69;;;21.43;100.00
73171;BME280;61381;50.118;19.962;2023-09-19T13:27:49;98129.00;;;21.24;100.00
73171;BME280;61381;50.118;19.962;2023-09-19T13:32:52;98124.47;;;22.12;100.00
73171;BME280;61381;50.118;19.962;2023-09-19T13:37:53;98131.41;;;22.05;100.00
73171;BME280;61381;50.118;19.962;2023-09-19T13:42:54;98140.66;;;21.70;100.00
73171;BME280;61381;50.118;19.962;2023-09-19T13:47:56;98142.41;;;22.13;100.00
73171;BME280;61381;50.118;19.962;2023-09-19T13:52:57;98146.00;;;21.90;100.00
73171;BME280;61381;50.118;19.962;2023-09-19T13:57:58;98144.44;;;21.89;100.00
73171;BME280;61381;50.118;19.962;2023-09-19T14:03:00;98152.88;;;22.07;100.00
73171;BME280;61381;50.118;19.962;2023-09-19T14:08:02;98146.00;;;22.51;100.00
73171;BME280;61381;50.118;19.962;2023-09-19T14:13:03;98148.75;;;22.51;100.00
73171;BME280;61381;50.118;19.962;2023-09-19T14:18:05;98148.22;;;23.09;100.00
73171;BME280;61381;50.118;19.962;2023-09-19T14:23:06;98154.53;;;23.17;100.00
73171;BME280;61381;50.118;19.962;2023-09-19T14:28:07;98154.50;;;23.13;100.00
73171;BME280;61381;50.118;19.962;2023-09-19T14:33:09;98149.22;;;23.35;100.00
73171;BME280;61381;50.118;19.962;2023-09-19T14:38:10;98157.41;;;23.35;100.00
73171;BME280;61381;50.118;19.962;2023-09-19T14:43:11;98158.31;;;23.50;100.00
73171;BME280;61381;50.118;19.962;2023-09-19T14:48:13;98177.16;;;23.14;100.00
73171;BME280;61381;50.118;19.962;2023-09-19T14:53:14;98175.22;;;23.14;100.00
73171;BME280;61381;50.118;19.962;2023-09-19T14:58:15;98173.84;;;22.97;100.00
73171;BME280;61381;50.118;19.962;2023-09-19T15:03:17;98174.13;;;22.89;100.00
73171;BME280;61381;50.118;19.962;2023-09-19T15:08:18;98174.28;;;23.44;100.00
73171;BME280;61381;50.118;19.962;2023-09-19T15:13:19;98178.66;;;23.53;100.00
73171;BME280;61381;50.118;19.962;2023-09-19T15:18:21;98183.09;;;23.23;100.00
73171;BME280;61381;50.118;19.962;2023-09-19T15:23:22;98186.00;;;23.04;100.00
73171;BME280;61381;50.118;19.962;2023-09-19T15:28:23;98180.97;;;22.72;100.00
73171;BME280;61381;50.118;19.962;2023-09-19T15:33:25;98183.59;;;22.61;100.00
73171;BME280;61381;50.118;19.962;2023-09-19T15:38:26;98181.28;;;23.01;100.00
73171;BME280;61381;50.118;19.962;2023-09-19T15:43:30;98183.13;;;22.55;100.00
73171;BME280;61381;50.118;19.962;2023-09-19T15:48:32;98185.28;;;22.39;100.00
73171;BME280;61381;50.118;19.962;2023-09-19T15:53:42;98185.28;;;22.12;100.00
73171;BME280;61381;50.118;19.962;2023-09-19T15:58:44;98194.75;;;22.22;100.00
73171;BME280;61381;50.118;19.962;2023-09-19T16:03:48;98198.00;;;22.01;100.00
73171;BME280;61381;50.118;19.962;2023-09-19T16:08:50;98201.75;;;21.92;100.00
73171;BME280;61381;50.118;19.962;2023-09-19T16:13:51;98191.44;;;22.05;100.00
73171;BME280;61381;50.118;19.962;2023-09-19T16:18:55;98199.06;;;22.23;100.00
73171;BME280;61381;50.118;19.962;2023-09-19T16:23:57;98184.59;;;21.92;100.00
73171;BME280;61381;50.118;19.962;2023-09-19T16:28:58;98182.88;;;21.34;100.00
73171;BME280;61381;50.118;19.962;2023-09-19T16:34:01;98179.09;;;21.62;100.00
73171;BME280;61381;50.118;19.962;2023-09-19T16:39:02;98203.91;;;21.80;100.00
73171;BME280;61381;50.118;19.962;2023-09-19T16:44:03;98184.09;;;21.36;100.00
73171;BME280;61381;50.118;19.962;2023-09-19T16:49:06;98190.53;;;21.25;100.00
73171;BME280;61381;50.118;19.962;2023-09-19T16:54:07;98202.16;;;21.22;100.00
73171;BME280;61381;50.118;19.962;2023-09-19T16:59:07;98205.91;;;21.13;100.00
73171;BME280;61381;50.118;19.962;2023-09-19T17:04:10;98212.09;;;20.91;100.00
73171;BME280;61381;50.118;19.962;2023-09-19T17:09:10;98216.53;;;20.79;100.00
73171;BME280;61381;50.118;19.962;2023-09-19T17:14:11;98227.34;;;20.95;100.00
73171;BME280;61381;50.118;19.962;2023-09-19T17:19:13;98232.78;;;20.95;100.00
73171;BME280;61381;50.118;19.962;2023-09-19T17:24:14;98234.53;;;20.48;100.00
73171;BME280;61381;50.118;19.962;2023-09-19T17:29:15;98240.53;;;20.03;100.00
73171;BME280;61381;50.118;19.962;2023-09-19T17:34:17;98245.38;;;19.77;100.00
73171;BME280;61381;50.118;19.962;2023-09-19T17:39:18;98258.59;;;19.95;100.00
73171;BME280;61381;50.118;19.962;2023-09-19T17:44:21;98252.56;;;19.86;100.00
73171;BME280;61381;50.118;19.962;2023-09-19T17:49:23;98253.63;;;19.81;100.00
73171;BME280;61381;50.118;19.962;2023-09-19T17:54:24;98260.78;;;19.57;100.00
73171;BME280;61381;50.118;19.962;2023-09-19T17:59:25;98266.53;;;19.40;100.00
73171;BME280;61381;50.118;19.962;2023-09-19T18:04:28;98276.47;;;19.04;100.00
73171;BME280;61381;50.118;19.962;2023-09-19T18:09:29;98282.38;;;18.81;100.00
73171;BME280;61381;50.118;19.962;2023-09-19T18:14:30;98293.38;;;19.13;100.00
73171;BME280;61381;50.118;19.962;2023-09-19T18:19:32;98303.56;;;19.16;100.00
73171;BME280;61381;50.118;19.962;2023-09-19T18:24:33;98299.59;;;19.14;100.00
73171;BME280;61381;50.118;19.962;2023-09-19T18:29:34;98304.19;;;19.25;100.00
73171;BME280;61381;50.118;19.962;2023-09-19T18:34:36;98316.09;;;19.21;100.00
73171;BME280;61381;50.118;19.962;2023-09-19T18:39:37;98323.00;;;18.78;100.00
73171;BME280;61381;50.118;19.962;2023-09-19T18:44:38;98317.03;;;18.60;100.00
73171;BME280;61381;50.118;19.962;2023-09-19T18:49:40;98320.84;;;18.71;100.00
73171;BME280;61381;50.118;19.962;2023-09-19T18:54:42;98327.19;;;18.63;100.00
73171;BME280;61381;50.118;19.962;2023-09-19T18:59:43;98327.13;;;18.47;100.00
73171;BME280;61381;50.118;19.962;2023-09-19T19:04:46;98334.00;;;18.57;100.00
73171;BME280;61381;50.118;19.962;2023-09-19T19:09:46;98326.41;;;18.38;100.00
73171;BME280;61381;50.118;19.962;2023-09-19T19:14:47;98336.72;;;18.57;100.00
73171;BME280;61381;50.118;19.962;2023-09-19T19:19:50;98322.47;;;18.47;100.00
73171;BME280;61381;50.118;19.962;2023-09-19T19:24:51;98344.72;;;18.78;100.00
73171;BME280;61381;50.118;19.962;2023-09-19T19:29:52;98349.69;;;18.51;100.00
73171;BME280;61381;50.118;19.962;2023-09-19T19:34:54;98351.69;;;18.79;100.00
73171;BME280;61381;50.118;19.962;2023-09-19T19:39:55;98349.94;;;18.21;100.00
73171;BME280;61381;50.118;19.962;2023-09-19T19:44:56;98349.59;;;18.47;100.00
73171;BME280;61381;50.118;19.962;2023-09-19T19:49:58;98350.84;;;18.38;100.00
73171;BME280;61381;50.118;19.962;2023-09-19T19:54:59;98346.31;;;18.17;100.00
73171;BME280;61381;50.118;19.962;2023-09-19T20:00:00;98355.03;;;18.23;100.00
73171;BME280;61381;50.118;19.962;2023-09-19T20:05:03;98352.44;;;18.39;100.00
73171;BME280;61381;50.118;19.962;2023-09-19T20:10:04;98356.84;;;18.31;100.00
73171;BME280;61381;50.118;19.962;2023-09-19T20:15:06;98365.53;;;18.49;100.00
73171;BME280;61381;50.118;19.962;2023-09-19T20:20:09;98362.50;;;18.38;100.00
73171;BME280;61381;50.118;19.962;2023-09-19T20:25:10;98367.47;;;18.85;100.00
73171;BME280;61381;50.118;19.962;2023-09-19T20:30:11;98366.63;;;18.97;100.00
73171;BME280;61381;50.118;19.962;2023-09-19T20:35:14;98377.19;;;18.49;100.00
73171;BME280;61381;50.118;19.962;2023-09-19T20:40:15;98373.91;;;18.56;100.00
73171;BME280;61381;50.118;19.962;2023-09-19T20:45:16;98374.34;;;18.58;100.00
73171;BME280;61381;50.118;19.962;2023-09-19T20:50:18;98383.59;;;18.69;100.00
73171;BME280;61381;50.118;19.962;2023-09-19T20:55:19;98383.94;;;18.56;100.00
73171;BME280;61381;50.118;19.962;2023-09-19T21:00:21;98381.69;;;18.21;100.00
73171;BME280;61381;50.118;19.962;2023-09-19T21:05:23;98382.69;;;18.28;100.00
73171;BME280;61381;50.118;19.962;2023-09-19T21:10:24;98383.84;;;18.52;100.00
73171;BME280;61381;50.118;19.962;2023-09-19T21:15:27;98383.38;;;18.38;100.00
73171;BME280;61381;50.118;19.962;2023-09-19T21:20:29;98389.59;;;17.80;100.00
73171;BME280;61381;50.118;19.962;2023-09-19T21:25:33;98391.81;;;17.65;100.00
73171;BME280;61381;50.118;19.962;2023-09-19T21:30:34;98389.19;;;17.57;100.00
73171;BME280;61381;50.118;19.962;2023-09-19T21:35:43;98390.94;;;17.19;100.00
73171;BME280;61381;50.118;19.962;2023-09-19T21:40:47;98386.88;;;17.46;100.00
73171;BME280;61381;50.118;19.962;2023-09-19T21:45:48;98391.53;;;17.46;100.00
73171;BME280;61381;50.118;19.962;2023-09-19T21:50:53;98381.59;;;17.50;100.00
73171;BME280;61381;50.118;19.962;2023-09-19T21:55:58;98383.34;;;17.34;100.00
73171;BME280;61381;50.118;19.962;2023-09-19T22:00:59;98377.28;;;17.16;100.00
73171;BME280;61381;50.118;19.962;2023-09-19T22:06:06;98387.63;;;16.92;100.00
73171;BME280;61381;50.118;19.962;2023-09-19T22:11:07;98384.34;;;16.78;100.00
73171;BME280;61381;50.118;19.962;2023-09-19T22:16:09;98384.13;;;17.13;100.00
73171;BME280;61381;50.118;19.962;2023-09-19T22:21:12;98385.47;;;16.77;100.00
73171;BME280;61381;50.118;19.962;2023-09-19T22:26:15;98378.91;;;16.87;100.00
73171;BME280;61381;50.118;19.962;2023-09-19T22:31:18;98376.13;;;16.66;100.00
73171;BME280;61381;50.118;19.962;2023-09-19T22:36:21;98372.59;;;16.74;100.00
73171;BME280;61381;50.118;19.962;2023-09-19T22:41:22;98378.66;;;17.01;100.00
73171;BME280;61381;50.118;19.962;2023-09-19T22:46:23;98374.00;;;16.50;100.00
73171;BME280;61381;50.118;19.962;2023-09-19T22:51:25;98380.72;;;16.35;100.00
73171;BME280;61381;50.118;19.962;2023-09-19T22:56:26;98382.41;;;16.19;100.00
73171;BME280;61381;50.118;19.962;2023-09-19T23:01:27;98383.88;;;16.76;100.00
73171;BME280;61381;50.118;19.962;2023-09-19T23:06:29;98389.19;;;16.93;100.00
73171;BME280;61381;50.118;19.962;2023-09-19T23:11:30;98397.78;;;16.96;100.00
73171;BME280;61381;50.118;19.962;2023-09-19T23:16:31;98396.75;;;16.79;100.00
73171;BME280;61381;50.118;19.962;2023-09-19T23:21:33;98397.91;;;16.99;100.00
73171;BME280;61381;50.118;19.962;2023-09-19T23:26:37;98400.88;;;16.55;100.00
73171;BME280;61381;50.118;19.962;2023-09-19T23:31:38;98392.34;;;15.97;100.00
73171;BME280;61381;50.118;19.962;2023-09-19T23:36:40;98394.72;;;15.99;100.00
73171;BME280;61381;50.118;19.962;2023-09-19T23:41:41;98396.88;;;16.83;100.00
73171;BME280;61381;50.118;19.962;2023-09-19T23:46:42;98399.97;;;16.72;100.00
73171;BME280;61381;50.118;19.962;2023-09-19T23:51:44;98401.91;;;16.33;100.00
73171;BME280;61381;50.118;19.962;2023-09-19T23:56:45;98401.53;;;16.52;100.00
